sensor_id;sensor_type;location;lat;lon;timestamp;P1;durP1;ratioP1;P2;durP2;ratioP2
7047;SDS011;3565;53.254;10.352;2022-08-19T00:00:43;16.70;;;13.70;;
7047;SDS011;3565;53.254;10.352;2022-08-19T00:03:13;16.03;;;12.60;;
7047;SDS011;3565;53.254;10.352;2022-08-19T00:05:43;19.13;;;13.50;;
7047;SDS011;3565;53.254;10.352;2022-08-19T00:08:12;18.80;;;14.20;;
7047;SDS011;3565;53.254;10.352;2022-08-19T00:10:41;16.10;;;12.83;;
7047;SDS011;3565;53.254;10.352;2022-08-19T00:13:09;15.87;;;12.27;;
7047;SDS011;3565;53.254;10.352;2022-08-19T00:15:39;16.33;;;12.80;;
7047;SDS011;3565;53.254;10.352;2022-08-19T00:18:09;14.53;;;11.70;;
7047;SDS011;3565;53.254;10.352;2022-08-19T00:20:39;18.43;;;12.27;;
7047;SDS011;3565;53.254;10.352;2022-08-19T00:23:08;13.87;;;11.23;;
7047;SDS011;3565;53.254;10.352;2022-08-19T00:25:37;18.43;;;12.30;;
7047;SDS011;3565;53.254;10.352;2022-08-19T00:28:07;16.17;;;11.47;;
7047;SDS011;3565;53.254;10.352;2022-08-19T00:30:36;16.23;;;12.53;;
7047;SDS011;3565;53.254;10.352;2022-08-19T00:33:05;15.30;;;11.20;;
7047;SDS011;3565;53.254;10.352;2022-08-19T00:35:35;13.07;;;10.87;;
7047;SDS011;3565;53.254;10.352;2022-08-19T00:38:04;14.63;;;10.63;;
7047;SDS011;3565;53.254;10.352;2022-08-19T00:40:34;17.77;;;11.87;;
7047;SDS011;3565;53.254;10.352;2022-08-19T00:43:07;15.97;;;11.53;;
7047;SDS011;3565;53.254;10.352;2022-08-19T00:45:39;12.43;;;11.07;;
7047;SDS011;3565;53.254;10.352;2022-08-19T00:48:10;17.37;;;11.73;;
7047;SDS011;3565;53.254;10.352;2022-08-19T00:50:39;16.60;;;13.07;;
7047;SDS011;3565;53.254;10.352;2022-08-19T00:53:09;14.17;;;11.87;;
7047;SDS011;3565;53.254;10.352;2022-08-19T00:55:41;17.83;;;12.27;;
7047;SDS011;3565;53.254;10.352;2022-08-19T00:58:14;24.67;;;12.60;;
7047;SDS011;3565;53.254;10.352;2022-08-19T01:00:41;15.80;;;12.53;;
7047;SDS011;3565;53.254;10.352;2022-08-19T01:03:13;18.00;;;12.23;;
7047;SDS011;3565;53.254;10.352;2022-08-19T01:05:42;12.70;;;11.30;;
7047;SDS011;3565;53.254;10.352;2022-08-19T01:08:13;18.53;;;12.27;;
7047;SDS011;3565;53.254;10.352;2022-08-19T01:10:45;16.73;;;12.70;;
7047;SDS011;3565;53.254;10.352;2022-08-19T01:13:16;15.93;;;12.17;;
7047;SDS011;3565;53.254;10.352;2022-08-19T01:15:46;13.70;;;11.53;;
7047;SDS011;3565;53.254;10.352;2022-08-19T01:18:17;18.17;;;12.37;;
7047;SDS011;3565;53.254;10.352;2022-08-19T01:20:58;15.57;;;12.47;;
7047;SDS011;3565;53.254;10.352;2022-08-19T01:23:28;16.47;;;12.17;;
7047;SDS011;3565;53.254;10.352;2022-08-19T01:26:11;14.80;;;12.63;;
7047;SDS011;3565;53.254;10.352;2022-08-19T01:28:40;15.57;;;12.03;;
7047;SDS011;3565;53.254;10.352;2022-08-19T01:31:12;14.27;;;11.67;;
7047;SDS011;3565;53.254;10.352;2022-08-19T01:33:42;15.87;;;11.50;;
7047;SDS011;3565;53.254;10.352;2022-08-19T01:36:11;13.87;;;12.47;;
7047;SDS011;3565;53.254;10.352;2022-08-19T01:38:43;16.97;;;13.27;;
7047;SDS011;3565;53.254;10.352;2022-08-19T01:41:12;17.47;;;12.33;;
7047;SDS011;3565;53.254;10.352;2022-08-19T01:43:41;15.63;;;12.23;;
7047;SDS011;3565;53.254;10.352;2022-08-19T01:46:10;16.80;;;12.87;;
7047;SDS011;3565;53.254;10.352;2022-08-19T01:48:40;17.13;;;13.07;;
7047;SDS011;3565;53.254;10.352;2022-08-19T01:51:10;14.00;;;11.50;;
7047;SDS011;3565;53.254;10.352;2022-08-19T01:53:40;17.23;;;12.07;;
7047;SDS011;3565;53.254;10.352;2022-08-19T01:56:08;16.70;;;11.83;;
7047;SDS011;3565;53.254;10.352;2022-08-19T01:58:38;17.07;;;13.03;;
7047;SDS011;3565;53.254;10.352;2022-08-19T02:01:09;15.63;;;12.07;;
7047;SDS011;3565;53.254;10.352;2022-08-19T02:03:39;11.70;;;10.50;;
7047;SDS011;3565;53.254;10.352;2022-08-19T02:06:07;13.80;;;11.70;;
7047;SDS011;3565;53.254;10.352;2022-08-19T02:08:37;15.77;;;12.97;;
7047;SDS011;3565;53.254;10.352;2022-08-19T02:11:07;17.37;;;12.80;;
7047;SDS011;3565;53.254;10.352;2022-08-19T02:13:36;14.37;;;10.30;;
7047;SDS011;3565;53.254;10.352;2022-08-19T02:16:05;15.20;;;12.07;;
7047;SDS011;3565;53.254;10.352;2022-08-19T02:18:34;12.27;;;10.37;;
7047;SDS011;3565;53.254;10.352;2022-08-19T02:21:03;14.30;;;11.43;;
7047;SDS011;3565;53.254;10.352;2022-08-19T02:23:32;12.87;;;10.63;;
7047;SDS011;3565;53.254;10.352;2022-08-19T02:26:01;13.80;;;11.70;;
7047;SDS011;3565;53.254;10.352;2022-08-19T02:28:30;14.30;;;11.93;;
7047;SDS011;3565;53.254;10.352;2022-08-19T02:31:00;13.93;;;10.03;;
7047;SDS011;3565;53.254;10.352;2022-08-19T02:33:29;14.77;;;11.70;;
7047;SDS011;3565;53.254;10.352;2022-08-19T02:35:58;12.83;;;9.93;;
7047;SDS011;3565;53.254;10.352;2022-08-19T02:38:27;13.77;;;11.27;;
7047;SDS011;3565;53.254;10.352;2022-08-19T02:40:57;16.13;;;12.13;;
7047;SDS011;3565;53.254;10.352;2022-08-19T02:43:26;14.80;;;11.37;;
7047;SDS011;3565;53.254;10.352;2022-08-19T02:45:55;14.30;;;12.10;;
7047;SDS011;3565;53.254;10.352;2022-08-19T02:48:25;16.30;;;11.93;;
7047;SDS011;3565;53.254;10.352;2022-08-19T02:50:54;12.90;;;10.20;;
7047;SDS011;3565;53.254;10.352;2022-08-19T02:53:23;14.70;;;11.37;;
7047;SDS011;3565;53.254;10.352;2022-08-19T02:55:54;16.70;;;12.10;;
7047;SDS011;3565;53.254;10.352;2022-08-19T02:58:22;18.07;;;12.80;;
7047;SDS011;3565;53.254;10.352;2022-08-19T03:00:55;13.73;;;11.30;;
7047;SDS011;3565;53.254;10.352;2022-08-19T03:03:22;17.97;;;13.30;;
7047;SDS011;3565;53.254;10.352;2022-08-19T03:05:51;18.17;;;14.07;;
7047;SDS011;3565;53.254;10.352;2022-08-19T03:08:21;18.27;;;14.33;;
7047;SDS011;3565;53.254;10.352;2022-08-19T03:10:51;23.03;;;15.67;;
7047;SDS011;3565;53.254;10.352;2022-08-19T03:13:20;21.43;;;15.77;;
7047;SDS011;3565;53.254;10.352;2022-08-19T03:15:50;23.27;;;16.47;;
7047;SDS011;3565;53.254;10.352;2022-08-19T03:18:18;23.57;;;17.43;;
7047;SDS011;3565;53.254;10.352;2022-08-19T03:20:48;24.27;;;17.53;;
7047;SDS011;3565;53.254;10.352;2022-08-19T03:23:20;26.00;;;17.83;;
7047;SDS011;3565;53.254;10.352;2022-08-19T03:25:50;28.30;;;18.20;;
7047;SDS011;3565;53.254;10.352;2022-08-19T03:28:20;27.87;;;18.77;;
7047;SDS011;3565;53.254;10.352;2022-08-19T03:30:56;25.63;;;18.53;;
7047;SDS011;3565;53.254;10.352;2022-08-19T03:33:27;23.30;;;16.23;;
7047;SDS011;3565;53.254;10.352;2022-08-19T03:36:03;26.47;;;18.10;;
7047;SDS011;3565;53.254;10.352;2022-08-19T03:38:31;27.13;;;17.47;;
7047;SDS011;3565;53.254;10.352;2022-08-19T03:41:02;26.30;;;16.33;;
7047;SDS011;3565;53.254;10.352;2022-08-19T03:43:35;29.63;;;16.87;;
7047;SDS011;3565;53.254;10.352;2022-08-19T03:46:07;17.97;;;13.77;;
7047;SDS011;3565;53.254;10.352;2022-08-19T03:48:38;20.10;;;14.07;;
7047;SDS011;3565;53.254;10.352;2022-08-19T03:51:14;17.97;;;14.27;;
7047;SDS011;3565;53.254;10.352;2022-08-19T03:53:43;20.43;;;13.57;;
7047;SDS011;3565;53.254;10.352;2022-08-19T03:56:13;16.43;;;11.33;;
7047;SDS011;3565;53.254;10.352;2022-08-19T03:58:42;20.83;;;14.03;;
7047;SDS011;3565;53.254;10.352;2022-08-19T04:01:13;16.53;;;12.70;;
7047;SDS011;3565;53.254;10.352;2022-08-19T04:03:44;21.63;;;13.37;;
7047;SDS011;3565;53.254;10.352;2022-08-19T04:06:14;20.07;;;13.90;;
7047;SDS011;3565;53.254;10.352;2022-08-19T04:08:46;18.63;;;13.07;;
7047;SDS011;3565;53.254;10.352;2022-08-19T04:11:17;16.73;;;12.27;;
7047;SDS011;3565;53.254;10.352;2022-08-19T04:13:49;16.20;;;12.07;;
7047;SDS011;3565;53.254;10.352;2022-08-19T04:16:19;18.43;;;12.77;;
7047;SDS011;3565;53.254;10.352;2022-08-19T04:18:48;17.63;;;12.27;;
7047;SDS011;3565;53.254;10.352;2022-08-19T04:21:19;16.53;;;11.70;;
7047;SDS011;3565;53.254;10.352;2022-08-19T04:23:49;18.37;;;12.23;;
7047;SDS011;3565;53.254;10.352;2022-08-19T04:26:20;18.70;;;12.30;;
7047;SDS011;3565;53.254;10.352;2022-08-19T04:28:50;19.63;;;13.30;;
7047;SDS011;3565;53.254;10.352;2022-08-19T04:31:21;23.83;;;13.53;;
7047;SDS011;3565;53.254;10.352;2022-08-19T04:33:53;22.80;;;13.47;;
7047;SDS011;3565;53.254;10.352;2022-08-19T04:36:24;19.80;;;13.73;;
7047;SDS011;3565;53.254;10.352;2022-08-19T04:38:54;22.03;;;13.80;;
7047;SDS011;3565;53.254;10.352;2022-08-19T04:41:24;21.77;;;14.03;;
7047;SDS011;3565;53.254;10.352;2022-08-19T04:44:12;19.50;;;14.07;;
7047;SDS011;3565;53.254;10.352;2022-08-19T04:46:43;24.07;;;15.33;;
7047;SDS011;3565;53.254;10.352;2022-08-19T04:49:13;25.23;;;14.80;;
7047;SDS011;3565;53.254;10.352;2022-08-19T04:51:43;20.67;;;14.70;;
7047;SDS011;3565;53.254;10.352;2022-08-19T04:54:14;20.03;;;14.20;;
7047;SDS011;3565;53.254;10.352;2022-08-19T04:56:43;18.27;;;12.53;;
7047;SDS011;3565;53.254;10.352;2022-08-19T04:59:12;22.47;;;14.53;;
7047;SDS011;3565;53.254;10.352;2022-08-19T05:01:42;22.37;;;14.30;;
7047;SDS011;3565;53.254;10.352;2022-08-19T05:04:12;21.07;;;13.60;;
7047;SDS011;3565;53.254;10.352;2022-08-19T05:06:41;21.50;;;14.57;;
7047;SDS011;3565;53.254;10.352;2022-08-19T05:09:11;19.53;;;12.80;;
7047;SDS011;3565;53.254;10.352;2022-08-19T05:11:38;18.03;;;13.60;;
7047;SDS011;3565;53.254;10.352;2022-08-19T05:14:08;18.27;;;12.10;;
7047;SDS011;3565;53.254;10.352;2022-08-19T05:16:38;22.10;;;14.47;;
7047;SDS011;3565;53.254;10.352;2022-08-19T05:19:08;18.20;;;13.03;;
7047;SDS011;3565;53.254;10.352;2022-08-19T05:24:51;20.93;;;14.20;;
7047;SDS011;3565;53.254;10.352;2022-08-19T05:27:20;21.43;;;14.17;;
7047;SDS011;3565;53.254;10.352;2022-08-19T05:29:49;24.27;;;14.67;;
7047;SDS011;3565;53.254;10.352;2022-08-19T05:32:19;20.33;;;14.43;;
7047;SDS011;3565;53.254;10.352;2022-08-19T05:34:49;20.13;;;13.80;;
7047;SDS011;3565;53.254;10.352;2022-08-19T05:37:19;22.33;;;14.77;;
7047;SDS011;3565;53.254;10.352;2022-08-19T05:39:48;19.07;;;13.67;;
7047;SDS011;3565;53.254;10.352;2022-08-19T05:42:17;16.83;;;13.23;;
7047;SDS011;3565;53.254;10.352;2022-08-19T05:44:49;18.40;;;13.70;;
7047;SDS011;3565;53.254;10.352;2022-08-19T05:47:19;21.00;;;13.73;;
7047;SDS011;3565;53.254;10.352;2022-08-19T05:49:48;18.60;;;13.50;;
7047;SDS011;3565;53.254;10.352;2022-08-19T05:52:21;22.93;;;14.80;;
7047;SDS011;3565;53.254;10.352;2022-08-19T05:54:51;25.20;;;15.53;;
7047;SDS011;3565;53.254;10.352;2022-08-19T05:57:21;21.00;;;14.37;;
7047;SDS011;3565;53.254;10.352;2022-08-19T05:59:51;25.67;;;15.93;;
7047;SDS011;3565;53.254;10.352;2022-08-19T06:02:20;24.40;;;16.20;;
7047;SDS011;3565;53.254;10.352;2022-08-19T06:04:49;26.00;;;15.83;;
7047;SDS011;3565;53.254;10.352;2022-08-19T06:07:19;25.00;;;16.87;;
7047;SDS011;3565;53.254;10.352;2022-08-19T06:09:48;24.90;;;16.80;;
7047;SDS011;3565;53.254;10.352;2022-08-19T06:12:18;32.50;;;18.00;;
7047;SDS011;3565;53.254;10.352;2022-08-19T06:14:48;27.70;;;18.37;;
7047;SDS011;3565;53.254;10.352;2022-08-19T06:17:19;31.43;;;18.73;;
7047;SDS011;3565;53.254;10.352;2022-08-19T06:19:50;30.33;;;19.67;;
7047;SDS011;3565;53.254;10.352;2022-08-19T06:22:19;29.43;;;20.07;;
7047;SDS011;3565;53.254;10.352;2022-08-19T06:24:48;33.17;;;20.47;;
7047;SDS011;3565;53.254;10.352;2022-08-19T06:27:18;31.23;;;19.90;;
7047;SDS011;3565;53.254;10.352;2022-08-19T06:29:49;29.60;;;20.13;;
7047;SDS011;3565;53.254;10.352;2022-08-19T06:32:18;34.80;;;21.67;;
7047;SDS011;3565;53.254;10.352;2022-08-19T06:35:09;38.07;;;24.47;;
7047;SDS011;3565;53.254;10.352;2022-08-19T06:37:38;38.90;;;24.30;;
7047;SDS011;3565;53.254;10.352;2022-08-19T06:40:08;39.50;;;23.73;;
7047;SDS011;3565;53.254;10.352;2022-08-19T06:42:39;37.87;;;23.63;;
7047;SDS011;3565;53.254;10.352;2022-08-19T06:45:07;43.23;;;26.90;;
7047;SDS011;3565;53.254;10.352;2022-08-19T06:47:37;46.80;;;27.30;;
7047;SDS011;3565;53.254;10.352;2022-08-19T06:50:06;38.73;;;26.50;;
7047;SDS011;3565;53.254;10.352;2022-08-19T06:52:34;41.73;;;26.57;;
7047;SDS011;3565;53.254;10.352;2022-08-19T06:55:06;37.47;;;25.73;;
7047;SDS011;3565;53.254;10.352;2022-08-19T06:57:34;37.87;;;23.83;;
7047;SDS011;3565;53.254;10.352;2022-08-19T07:00:05;41.40;;;26.37;;
7047;SDS011;3565;53.254;10.352;2022-08-19T07:02:37;42.90;;;27.10;;
7047;SDS011;3565;53.254;10.352;2022-08-19T07:05:07;43.83;;;25.60;;
7047;SDS011;3565;53.254;10.352;2022-08-19T07:07:35;39.57;;;26.23;;
7047;SDS011;3565;53.254;10.352;2022-08-19T07:10:06;42.80;;;25.80;;
7047;SDS011;3565;53.254;10.352;2022-08-19T07:12:34;43.37;;;26.73;;
7047;SDS011;3565;53.254;10.352;2022-08-19T07:15:03;45.73;;;27.10;;
7047;SDS011;3565;53.254;10.352;2022-08-19T07:17:31;38.77;;;26.27;;
7047;SDS011;3565;53.254;10.352;2022-08-19T07:20:03;45.97;;;28.33;;
7047;SDS011;3565;53.254;10.352;2022-08-19T07:22:31;43.13;;;29.07;;
7047;SDS011;3565;53.254;10.352;2022-08-19T07:25:00;46.57;;;28.80;;
7047;SDS011;3565;53.254;10.352;2022-08-19T07:27:31;44.20;;;27.83;;
7047;SDS011;3565;53.254;10.352;2022-08-19T07:30:00;44.87;;;28.07;;
7047;SDS011;3565;53.254;10.352;2022-08-19T07:32:31;51.20;;;31.00;;
7047;SDS011;3565;53.254;10.352;2022-08-19T07:34:59;53.43;;;30.87;;
7047;SDS011;3565;53.254;10.352;2022-08-19T07:37:29;51.30;;;29.80;;
7047;SDS011;3565;53.254;10.352;2022-08-19T07:39:58;49.60;;;30.63;;
7047;SDS011;3565;53.254;10.352;2022-08-19T07:42:28;45.37;;;28.37;;
7047;SDS011;3565;53.254;10.352;2022-08-19T07:44:56;52.00;;;30.30;;
7047;SDS011;3565;53.254;10.352;2022-08-19T07:47:26;51.17;;;30.90;;
7047;SDS011;3565;53.254;10.352;2022-08-19T07:49:54;55.63;;;31.73;;
7047;SDS011;3565;53.254;10.352;2022-08-19T07:52:23;58.33;;;32.27;;
7047;SDS011;3565;53.254;10.352;2022-08-19T07:54:52;51.73;;;30.20;;
7047;SDS011;3565;53.254;10.352;2022-08-19T07:57:19;53.67;;;30.27;;
7047;SDS011;3565;53.254;10.352;2022-08-19T07:59:48;49.40;;;30.43;;
7047;SDS011;3565;53.254;10.352;2022-08-19T08:02:17;57.60;;;30.63;;
7047;SDS011;3565;53.254;10.352;2022-08-19T08:04:45;58.63;;;32.33;;
7047;SDS011;3565;53.254;10.352;2022-08-19T08:07:32;48.67;;;29.87;;
7047;SDS011;3565;53.254;10.352;2022-08-19T08:10:17;57.40;;;31.27;;
7047;SDS011;3565;53.254;10.352;2022-08-19T08:12:47;56.07;;;31.03;;
7047;SDS011;3565;53.254;10.352;2022-08-19T08:15:15;52.27;;;30.43;;
7047;SDS011;3565;53.254;10.352;2022-08-19T08:17:45;59.53;;;31.77;;
7047;SDS011;3565;53.254;10.352;2022-08-19T08:20:14;57.13;;;31.70;;
7047;SDS011;3565;53.254;10.352;2022-08-19T08:22:44;56.33;;;31.50;;
7047;SDS011;3565;53.254;10.352;2022-08-19T08:25:31;51.77;;;30.97;;
7047;SDS011;3565;53.254;10.352;2022-08-19T08:28:02;51.50;;;28.60;;
7047;SDS011;3565;53.254;10.352;2022-08-19T08:30:32;51.40;;;28.97;;
7047;SDS011;3565;53.254;10.352;2022-08-19T08:33:03;49.10;;;31.17;;
7047;SDS011;3565;53.254;10.352;2022-08-19T08:35:32;50.13;;;29.80;;
7047;SDS011;3565;53.254;10.352;2022-08-19T08:38:00;56.73;;;30.27;;
7047;SDS011;3565;53.254;10.352;2022-08-19T08:40:32;48.17;;;27.83;;
7047;SDS011;3565;53.254;10.352;2022-08-19T08:43:02;54.43;;;29.90;;
7047;SDS011;3565;53.254;10.352;2022-08-19T08:45:32;53.07;;;30.40;;
7047;SDS011;3565;53.254;10.352;2022-08-19T08:48:01;44.80;;;28.03;;
7047;SDS011;3565;53.254;10.352;2022-08-19T08:50:33;43.80;;;26.27;;
7047;SDS011;3565;53.254;10.352;2022-08-19T08:53:04;48.37;;;27.07;;
7047;SDS011;3565;53.254;10.352;2022-08-19T08:55:35;49.20;;;27.07;;
7047;SDS011;3565;53.254;10.352;2022-08-19T08:58:04;49.63;;;27.87;;
7047;SDS011;3565;53.254;10.352;2022-08-19T09:00:34;41.37;;;25.87;;
7047;SDS011;3565;53.254;10.352;2022-08-19T09:03:03;45.80;;;27.17;;
7047;SDS011;3565;53.254;10.352;2022-08-19T09:05:36;45.27;;;26.47;;
7047;SDS011;3565;53.254;10.352;2022-08-19T09:08:05;41.33;;;24.60;;
7047;SDS011;3565;53.254;10.352;2022-08-19T09:10:37;42.60;;;25.00;;
7047;SDS011;3565;53.254;10.352;2022-08-19T09:13:10;45.20;;;26.80;;
7047;SDS011;3565;53.254;10.352;2022-08-19T09:15:40;40.93;;;24.97;;
7047;SDS011;3565;53.254;10.352;2022-08-19T09:18:08;39.93;;;24.47;;
7047;SDS011;3565;53.254;10.352;2022-08-19T09:20:37;37.53;;;23.97;;
7047;SDS011;3565;53.254;10.352;2022-08-19T09:23:07;36.50;;;23.97;;
7047;SDS011;3565;53.254;10.352;2022-08-19T09:25:35;39.73;;;23.53;;
7047;SDS011;3565;53.254;10.352;2022-08-19T09:28:06;39.27;;;23.60;;
7047;SDS011;3565;53.254;10.352;2022-08-19T09:30:39;37.60;;;23.03;;
7047;SDS011;3565;53.254;10.352;2022-08-19T09:33:06;36.07;;;23.47;;
7047;SDS011;3565;53.254;10.352;2022-08-19T09:35:35;35.03;;;22.47;;
7047;SDS011;3565;53.254;10.352;2022-08-19T09:38:03;34.07;;;22.50;;
7047;SDS011;3565;53.254;10.352;2022-08-19T09:40:32;35.13;;;21.83;;
7047;SDS011;3565;53.254;10.352;2022-08-19T09:43:00;32.60;;;21.00;;
7047;SDS011;3565;53.254;10.352;2022-08-19T09:45:29;35.77;;;22.03;;
7047;SDS011;3565;53.254;10.352;2022-08-19T09:47:57;40.27;;;23.00;;
7047;SDS011;3565;53.254;10.352;2022-08-19T09:50:25;37.90;;;23.40;;
7047;SDS011;3565;53.254;10.352;2022-08-19T09:52:53;37.60;;;22.03;;
7047;SDS011;3565;53.254;10.352;2022-08-19T09:55:24;35.53;;;21.90;;
7047;SDS011;3565;53.254;10.352;2022-08-19T09:57:53;40.00;;;23.17;;
7047;SDS011;3565;53.254;10.352;2022-08-19T10:00:22;38.97;;;23.97;;
7047;SDS011;3565;53.254;10.352;2022-08-19T10:02:49;37.50;;;23.53;;
7047;SDS011;3565;53.254;10.352;2022-08-19T10:05:18;40.00;;;24.23;;
7047;SDS011;3565;53.254;10.352;2022-08-19T10:08:04;38.00;;;22.93;;
7047;SDS011;3565;53.254;10.352;2022-08-19T10:10:35;35.83;;;21.23;;
7047;SDS011;3565;53.254;10.352;2022-08-19T10:13:03;32.50;;;21.30;;
7047;SDS011;3565;53.254;10.352;2022-08-19T10:15:34;33.43;;;21.37;;
7047;SDS011;3565;53.254;10.352;2022-08-19T10:18:02;31.80;;;20.53;;
7047;SDS011;3565;53.254;10.352;2022-08-19T10:20:30;41.43;;;24.03;;
7047;SDS011;3565;53.254;10.352;2022-08-19T10:22:58;38.33;;;22.63;;
7047;SDS011;3565;53.254;10.352;2022-08-19T10:25:27;38.37;;;23.27;;
7047;SDS011;3565;53.254;10.352;2022-08-19T10:27:56;39.37;;;23.70;;
7047;SDS011;3565;53.254;10.352;2022-08-19T10:30:24;35.27;;;23.37;;
7047;SDS011;3565;53.254;10.352;2022-08-19T10:32:54;39.67;;;24.77;;
7047;SDS011;3565;53.254;10.352;2022-08-19T10:35:23;37.83;;;24.17;;
7047;SDS011;3565;53.254;10.352;2022-08-19T10:37:52;35.20;;;24.13;;
7047;SDS011;3565;53.254;10.352;2022-08-19T10:40:23;40.87;;;26.17;;
7047;SDS011;3565;53.254;10.352;2022-08-19T10:42:51;37.07;;;24.47;;
7047;SDS011;3565;53.254;10.352;2022-08-19T10:45:19;34.30;;;22.43;;
7047;SDS011;3565;53.254;10.352;2022-08-19T10:47:50;34.07;;;22.90;;
7047;SDS011;3565;53.254;10.352;2022-08-19T10:50:19;35.77;;;22.83;;
7047;SDS011;3565;53.254;10.352;2022-08-19T10:53:06;37.47;;;23.43;;
7047;SDS011;3565;53.254;10.352;2022-08-19T10:55:35;41.87;;;25.07;;
7047;SDS011;3565;53.254;10.352;2022-08-19T10:58:22;37.43;;;24.40;;
7047;SDS011;3565;53.254;10.352;2022-08-19T11:00:52;39.93;;;27.37;;
7047;SDS011;3565;53.254;10.352;2022-08-19T11:03:23;41.00;;;26.47;;
7047;SDS011;3565;53.254;10.352;2022-08-19T11:05:57;41.97;;;26.40;;
7047;SDS011;3565;53.254;10.352;2022-08-19T11:08:25;39.73;;;25.87;;
7047;SDS011;3565;53.254;10.352;2022-08-19T11:10:54;45.27;;;27.40;;
7047;SDS011;3565;53.254;10.352;2022-08-19T11:13:24;41.63;;;26.40;;
7047;SDS011;3565;53.254;10.352;2022-08-19T11:15:59;48.43;;;28.37;;
7047;SDS011;3565;53.254;10.352;2022-08-19T11:18:27;41.80;;;26.63;;
7047;SDS011;3565;53.254;10.352;2022-08-19T11:21:04;36.73;;;25.23;;
7047;SDS011;3565;53.254;10.352;2022-08-19T11:23:25;44.27;;;27.30;;
7047;SDS011;3565;53.254;10.352;2022-08-19T11:25:53;41.07;;;25.87;;
7047;SDS011;3565;53.254;10.352;2022-08-19T11:28:23;39.67;;;23.63;;
7047;SDS011;3565;53.254;10.352;2022-08-19T11:30:52;40.07;;;25.80;;
7047;SDS011;3565;53.254;10.352;2022-08-19T11:33:20;40.20;;;27.37;;
7047;SDS011;3565;53.254;10.352;2022-08-19T11:35:49;41.23;;;29.10;;
7047;SDS011;3565;53.254;10.352;2022-08-19T11:38:18;43.87;;;29.70;;
7047;SDS011;3565;53.254;10.352;2022-08-19T11:40:54;42.03;;;27.53;;
7047;SDS011;3565;53.254;10.352;2022-08-19T11:43:21;44.77;;;28.87;;
7047;SDS011;3565;53.254;10.352;2022-08-19T11:45:52;45.83;;;29.43;;
7047;SDS011;3565;53.254;10.352;2022-08-19T11:48:21;42.40;;;29.50;;
7047;SDS011;3565;53.254;10.352;2022-08-19T11:50:50;43.80;;;29.57;;
7047;SDS011;3565;53.254;10.352;2022-08-19T11:53:18;46.33;;;31.80;;
7047;SDS011;3565;53.254;10.352;2022-08-19T11:55:47;43.47;;;30.73;;
7047;SDS011;3565;53.254;10.352;2022-08-19T11:58:17;44.90;;;30.23;;
7047;SDS011;3565;53.254;10.352;2022-08-19T12:00:45;42.33;;;29.30;;
7047;SDS011;3565;53.254;10.352;2022-08-19T12:03:14;45.13;;;31.00;;
7047;SDS011;3565;53.254;10.352;2022-08-19T12:05:43;44.17;;;31.03;;
7047;SDS011;3565;53.254;10.352;2022-08-19T12:08:13;39.97;;;30.30;;
7047;SDS011;3565;53.254;10.352;2022-08-19T12:10:42;41.30;;;30.90;;
7047;SDS011;3565;53.254;10.352;2022-08-19T12:13:12;38.87;;;27.97;;
7047;SDS011;3565;53.254;10.352;2022-08-19T12:15:42;39.80;;;27.40;;
7047;SDS011;3565;53.254;10.352;2022-08-19T12:18:11;41.63;;;30.33;;
7047;SDS011;3565;53.254;10.352;2022-08-19T12:20:40;46.27;;;32.83;;
7047;SDS011;3565;53.254;10.352;2022-08-19T12:23:09;44.70;;;33.73;;
7047;SDS011;3565;53.254;10.352;2022-08-19T12:25:43;37.53;;;31.73;;
7047;SDS011;3565;53.254;10.352;2022-08-19T12:28:14;40.97;;;32.13;;
7047;SDS011;3565;53.254;10.352;2022-08-19T12:30:43;45.33;;;31.83;;
7047;SDS011;3565;53.254;10.352;2022-08-19T12:33:11;44.70;;;32.77;;
7047;SDS011;3565;53.254;10.352;2022-08-19T12:35:41;41.97;;;32.23;;
7047;SDS011;3565;53.254;10.352;2022-08-19T12:38:08;40.63;;;31.40;;
7047;SDS011;3565;53.254;10.352;2022-08-19T12:40:37;41.63;;;32.93;;
7047;SDS011;3565;53.254;10.352;2022-08-19T12:43:06;38.70;;;31.83;;
7047;SDS011;3565;53.254;10.352;2022-08-19T12:45:37;43.40;;;32.87;;
7047;SDS011;3565;53.254;10.352;2022-08-19T12:48:06;43.17;;;33.90;;
7047;SDS011;3565;53.254;10.352;2022-08-19T12:50:38;42.27;;;33.40;;
7047;SDS011;3565;53.254;10.352;2022-08-19T12:53:07;38.97;;;31.00;;
7047;SDS011;3565;53.254;10.352;2022-08-19T12:55:36;39.27;;;30.87;;
7047;SDS011;3565;53.254;10.352;2022-08-19T12:58:05;40.97;;;32.17;;
7047;SDS011;3565;53.254;10.352;2022-08-19T13:00:34;39.13;;;31.67;;
7047;SDS011;3565;53.254;10.352;2022-08-19T13:03:04;35.83;;;30.67;;
7047;SDS011;3565;53.254;10.352;2022-08-19T13:05:34;40.23;;;31.53;;
7047;SDS011;3565;53.254;10.352;2022-08-19T13:08:02;35.80;;;30.87;;
7047;SDS011;3565;53.254;10.352;2022-08-19T13:10:32;36.37;;;30.40;;
7047;SDS011;3565;53.254;10.352;2022-08-19T13:13:01;36.07;;;29.77;;
7047;SDS011;3565;53.254;10.352;2022-08-19T13:15:34;39.27;;;31.53;;
7047;SDS011;3565;53.254;10.352;2022-08-19T13:18:09;41.37;;;32.30;;
7047;SDS011;3565;53.254;10.352;2022-08-19T13:20:36;39.50;;;30.47;;
7047;SDS011;3565;53.254;10.352;2022-08-19T13:23:07;37.60;;;30.63;;
7047;SDS011;3565;53.254;10.352;2022-08-19T13:25:36;39.67;;;30.87;;
7047;SDS011;3565;53.254;10.352;2022-08-19T13:28:06;36.27;;;28.73;;
7047;SDS011;3565;53.254;10.352;2022-08-19T13:30:34;35.50;;;29.07;;
7047;SDS011;3565;53.254;10.352;2022-08-19T13:33:21;35.70;;;28.80;;
7047;SDS011;3565;53.254;10.352;2022-08-19T13:35:57;34.30;;;27.73;;
7047;SDS011;3565;53.254;10.352;2022-08-19T13:38:27;33.27;;;28.20;;
7047;SDS011;3565;53.254;10.352;2022-08-19T13:40:57;29.90;;;24.80;;
7047;SDS011;3565;53.254;10.352;2022-08-19T13:43:28;27.87;;;24.10;;
7047;SDS011;3565;53.254;10.352;2022-08-19T13:45:57;27.23;;;24.27;;
7047;SDS011;3565;53.254;10.352;2022-08-19T13:48:27;24.27;;;21.77;;
7047;SDS011;3565;53.254;10.352;2022-08-19T13:50:57;27.27;;;23.73;;
7047;SDS011;3565;53.254;10.352;2022-08-19T13:53:26;22.20;;;19.20;;
7047;SDS011;3565;53.254;10.352;2022-08-19T13:55:56;25.53;;;22.40;;
7047;SDS011;3565;53.254;10.352;2022-08-19T13:58:26;23.27;;;20.77;;
7047;SDS011;3565;53.254;10.352;2022-08-19T14:00:55;22.67;;;20.27;;
7047;SDS011;3565;53.254;10.352;2022-08-19T14:03:26;23.37;;;21.07;;
7047;SDS011;3565;53.254;10.352;2022-08-19T14:05:54;23.97;;;21.17;;
7047;SDS011;3565;53.254;10.352;2022-08-19T14:08:23;21.83;;;19.60;;
7047;SDS011;3565;53.254;10.352;2022-08-19T14:10:54;26.33;;;23.47;;
7047;SDS011;3565;53.254;10.352;2022-08-19T14:13:23;26.93;;;24.03;;
7047;SDS011;3565;53.254;10.352;2022-08-19T14:15:53;23.70;;;21.23;;
7047;SDS011;3565;53.254;10.352;2022-08-19T14:18:22;25.47;;;21.97;;
7047;SDS011;3565;53.254;10.352;2022-08-19T14:20:51;25.00;;;22.50;;
7047;SDS011;3565;53.254;10.352;2022-08-19T14:23:20;22.83;;;20.57;;
7047;SDS011;3565;53.254;10.352;2022-08-19T14:25:49;25.57;;;22.87;;
7047;SDS011;3565;53.254;10.352;2022-08-19T14:28:18;23.60;;;21.10;;
7047;SDS011;3565;53.254;10.352;2022-08-19T14:30:49;22.40;;;20.00;;
7047;SDS011;3565;53.254;10.352;2022-08-19T14:33:19;25.77;;;22.97;;
7047;SDS011;3565;53.254;10.352;2022-08-19T14:35:47;22.17;;;19.87;;
7047;SDS011;3565;53.254;10.352;2022-08-19T14:38:17;24.27;;;21.77;;
7047;SDS011;3565;53.254;10.352;2022-08-19T14:40:47;25.77;;;23.10;;
7047;SDS011;3565;53.254;10.352;2022-08-19T14:43:17;24.50;;;21.93;;
7047;SDS011;3565;53.254;10.352;2022-08-19T14:45:48;26.13;;;23.43;;
7047;SDS011;3565;53.254;10.352;2022-08-19T14:48:18;26.77;;;23.97;;
7047;SDS011;3565;53.254;10.352;2022-08-19T14:50:47;22.63;;;20.40;;
7047;SDS011;3565;53.254;10.352;2022-08-19T14:53:16;26.00;;;23.40;;